createdAt,value
2023-01-19T00:00:27.975Z,99610.94
2023-01-19T00:02:55.066Z,99606.44
2023-01-19T00:05:21.964Z,99603.06
2023-01-19T00:07:48.520Z,99615.69
2023-01-19T00:10:15.137Z,99616.06
2023-01-19T00:12:41.632Z,99603.59
2023-01-19T00:15:08.941Z,99608.66
2023-01-19T00:17:35.545Z,99604.16
2023-01-19T00:20:02.133Z,99607.84
2023-01-19T00:22:28.744Z,99608.06
2023-01-19T00:24:55.261Z,99609.06
2023-01-19T00:27:21.811Z,99611.72
2023-01-19T00:29:48.508Z,99623.22
2023-01-19T00:32:15.084Z,99622.00
2023-01-19T00:34:42.766Z,99619.06
2023-01-19T00:37:10.128Z,99615.28
2023-01-19T00:39:36.698Z,99605.59
2023-01-19T00:42:21.754Z,99613.72
2023-01-19T00:44:48.248Z,99609.81
2023-01-19T00:47:14.763Z,99615.03
2023-01-19T00:49:41.306Z,99616.59
2023-01-19T00:52:07.817Z,99614.03
2023-01-19T00:54:34.314Z,99605.06
2023-01-19T00:57:00.864Z,99606.75
2023-01-19T00:59:27.334Z,99606.03
2023-01-19T01:01:54.027Z,99614.03
2023-01-19T01:04:20.723Z,99615.88
2023-01-19T01:06:47.490Z,99620.09
2023-01-19T01:09:14.005Z,99625.28
2023-01-19T01:11:42.442Z,99625.19
2023-01-19T01:14:10.549Z,99632.19
2023-01-19T01:16:37.044Z,99632.91
2023-01-19T01:19:03.571Z,99632.66
2023-01-19T01:21:30.169Z,99636.44
2023-01-19T01:23:56.930Z,99654.22
2023-01-19T01:26:23.457Z,99659.31
2023-01-19T01:28:50.648Z,99674.22
2023-01-19T01:31:17.205Z,99654.59
2023-01-19T01:33:43.879Z,99668.03
2023-01-19T01:36:11.871Z,99665.88
2023-01-19T01:38:42.079Z,99667.00
2023-01-19T01:41:09.125Z,99673.19
2023-01-19T01:43:48.517Z,99683.56
2023-01-19T01:46:17.305Z,99687.66
2023-01-19T01:48:48.851Z,99695.53
2023-01-19T01:51:24.142Z,99685.59
2023-01-19T01:54:08.745Z,99703.56
2023-01-19T01:56:40.235Z,99704.66
2023-01-19T01:59:11.248Z,99705.63
2023-01-19T02:01:56.410Z,99704.53
2023-01-19T02:04:23.723Z,99704.97
2023-01-19T02:07:09.199Z,99704.84
2023-01-19T02:09:56.046Z,99703.44
2023-01-19T02:12:41.272Z,99698.34
2023-01-19T02:15:16.146Z,99699.84
2023-01-19T02:17:43.175Z,99705.41
2023-01-19T02:20:10.686Z,99703.75
2023-01-19T02:22:45.210Z,99704.34
2023-01-19T02:25:12.110Z,99704.19
2023-01-19T02:27:39.271Z,99709.69
2023-01-19T02:30:07.138Z,99708.97
2023-01-19T02:32:33.695Z,99708.09
2023-01-19T02:35:00.310Z,99711.75
2023-01-19T02:37:28.508Z,99714.81
2023-01-19T02:39:57.826Z,99719.22
2023-01-19T02:42:35.179Z,99728.38
2023-01-19T02:45:06.755Z,99724.47
2023-01-19T02:47:41.136Z,99727.41
2023-01-19T02:50:38.308Z,99717.03
2023-01-19T02:53:20.883Z,99705.66
2023-01-19T02:56:24.814Z,99704.06
2023-01-19T02:58:51.340Z,99702.75
2023-01-19T03:01:31.907Z,99695.97
2023-01-19T03:04:07.516Z,99695.00
2023-01-19T03:06:33.980Z,99693.31
2023-01-19T03:09:34.405Z,99690.78
2023-01-19T03:12:15.877Z,99682.19
2023-01-19T03:14:45.980Z,99670.69
2023-01-19T03:17:13.512Z,99673.47
2023-01-19T03:19:41.517Z,99664.63
2023-01-19T03:22:11.979Z,99652.16
2023-01-19T03:24:41.898Z,99651.59
2023-01-19T03:27:23.371Z,99657.53
2023-01-19T03:30:18.624Z,99659.47
2023-01-19T03:32:50.192Z,99654.03
2023-01-19T03:35:18.008Z,99657.41
2023-01-19T03:37:46.047Z,99657.16
2023-01-19T03:40:13.809Z,99656.75
2023-01-19T03:42:41.310Z,99640.66
2023-01-19T03:45:09.210Z,99651.19
2023-01-19T03:47:36.273Z,99642.94
2023-01-19T03:50:04.124Z,99648.88
2023-01-19T03:52:35.151Z,99630.13
2023-01-19T03:55:03.897Z,99647.66
2023-01-19T03:57:30.664Z,99640.50
2023-01-19T03:59:57.313Z,99640.88
2023-01-19T04:02:24.450Z,99640.75
2023-01-19T04:04:51.074Z,99639.06
2023-01-19T04:07:17.729Z,99636.16
2023-01-19T04:09:44.654Z,99639.88
2023-01-19T04:12:11.232Z,99646.88
2023-01-19T04:14:37.748Z,99647.03
2023-01-19T04:17:04.266Z,99635.50
2023-01-19T04:19:30.765Z,99632.72
2023-01-19T04:21:57.563Z,99601.59
2023-01-19T04:24:24.098Z,99622.38
2023-01-19T04:26:53.438Z,99615.94
2023-01-19T04:29:20.040Z,99624.66
2023-01-19T04:31:46.561Z,99617.41
2023-01-19T04:34:13.119Z,99634.28
2023-01-19T04:36:39.660Z,99603.97
2023-01-19T04:39:08.390Z,99605.81
2023-01-19T04:41:34.888Z,99612.97
2023-01-19T04:44:01.477Z,99605.69
2023-01-19T04:46:28.029Z,99599.38
2023-01-19T04:48:54.642Z,99615.22
2023-01-19T04:51:21.245Z,99606.00
2023-01-19T04:53:47.761Z,99601.63
2023-01-19T04:56:14.280Z,99614.13
2023-01-19T04:58:40.767Z,99617.50
2023-01-19T05:01:08.619Z,99617.09
2023-01-19T05:03:35.271Z,99616.16
2023-01-19T05:06:01.870Z,99638.19
2023-01-19T05:08:28.424Z,99623.88
2023-01-19T05:10:54.992Z,99631.63
2023-01-19T05:13:21.587Z,99642.00
2023-01-19T05:15:48.181Z,99648.19
2023-01-19T05:18:14.748Z,99635.56
2023-01-19T05:20:41.545Z,99644.16
2023-01-19T05:23:08.074Z,99652.88
2023-01-19T05:25:34.658Z,99632.25
2023-01-19T05:28:01.890Z,99643.66
2023-01-19T05:30:28.538Z,99680.69
2023-01-19T05:32:55.107Z,99685.28
2023-01-19T05:35:31.289Z,99701.09
2023-01-19T05:38:02.045Z,99666.53
2023-01-19T05:40:28.675Z,99685.47
2023-01-19T05:42:55.184Z,99708.13
2023-01-19T05:45:21.724Z,99688.78
2023-01-19T05:47:48.253Z,99699.66
2023-01-19T05:50:15.060Z,99703.53
2023-01-19T05:52:41.708Z,99698.69
2023-01-19T05:55:08.764Z,99703.66
2023-01-19T05:57:35.405Z,99709.13
2023-01-19T06:00:02.955Z,99698.22
2023-01-19T06:02:30.238Z,99721.94
2023-01-19T06:04:57.104Z,99743.47
2023-01-19T06:07:24.475Z,99728.47
2023-01-19T06:09:51.774Z,99751.69
2023-01-19T06:12:18.667Z,99725.81
2023-01-19T06:14:45.376Z,99723.41
2023-01-19T06:17:11.889Z,99728.97
2023-01-19T06:19:38.409Z,99742.75
2023-01-19T06:22:04.977Z,99736.09
2023-01-19T06:24:31.600Z,99734.63
2023-01-19T06:26:58.279Z,99745.53
2023-01-19T06:29:25.421Z,99751.81
2023-01-19T06:31:52.282Z,99773.25
2023-01-19T06:34:19.916Z,99767.19
2023-01-19T06:36:47.233Z,99771.31
2023-01-19T06:39:14.209Z,99780.50
2023-01-19T06:41:40.725Z,99791.16
2023-01-19T06:44:07.375Z,99795.16
2023-01-19T06:46:35.101Z,99798.88
2023-01-19T06:49:01.922Z,99804.44
2023-01-19T06:51:29.053Z,99794.06
2023-01-19T06:53:55.569Z,99807.38
2023-01-19T06:56:22.108Z,99801.31
2023-01-19T06:58:48.995Z,99805.78
2023-01-19T07:01:15.654Z,99809.78
2023-01-19T07:03:42.515Z,99817.28
2023-01-19T07:06:09.143Z,99829.13
2023-01-19T07:08:36.907Z,99829.84
2023-01-19T07:11:26.218Z,99837.66
2023-01-19T07:13:54.734Z,99837.16
2023-01-19T07:16:21.301Z,99848.28
2023-01-19T07:18:48.435Z,99853.25
2023-01-19T07:21:15.476Z,99851.28
2023-01-19T07:23:43.366Z,99856.50
2023-01-19T07:26:10.306Z,99864.50
2023-01-19T07:28:37.260Z,99855.28
2023-01-19T07:31:04.003Z,99870.06
2023-01-19T07:33:30.619Z,99875.41
2023-01-19T07:35:57.383Z,99872.84
2023-01-19T07:38:24.003Z,99887.53
2023-01-19T07:40:50.520Z,99895.53
2023-01-19T07:43:17.184Z,99891.03
2023-01-19T07:45:45.072Z,99898.91
2023-01-19T07:48:11.705Z,99902.41
2023-01-19T07:50:38.283Z,99905.91
2023-01-19T07:53:06.570Z,99911.75
2023-01-19T07:55:33.166Z,99918.75
2023-01-19T07:57:59.735Z,99921.69
2023-01-19T08:00:26.502Z,99924.34
2023-01-19T08:02:53.950Z,99930.41
2023-01-19T08:05:21.266Z,99934.03
2023-01-19T08:07:48.446Z,99943.03
2023-01-19T08:10:16.509Z,99942.03
2023-01-19T08:12:43.080Z,99949.91
2023-01-19T08:15:10.806Z,99945.31
2023-01-19T08:17:37.782Z,99950.41
2023-01-19T08:20:04.792Z,99961.66
2023-01-19T08:22:31.405Z,99963.13
2023-01-19T08:24:57.978Z,99969.31
2023-01-19T08:27:24.569Z,99970.38
2023-01-19T08:29:51.241Z,99969.31
2023-01-19T08:32:17.840Z,99972.09
2023-01-19T08:34:44.469Z,99973.06
2023-01-19T08:37:11.542Z,99975.50
2023-01-19T08:39:38.128Z,99988.00
2023-01-19T08:42:05.605Z,99988.94
2023-01-19T08:44:32.233Z,99990.88
2023-01-19T08:47:00.003Z,99992.94
2023-01-19T08:49:26.712Z,100005.09
2023-01-19T08:51:53.414Z,99998.66
2023-01-19T08:54:21.734Z,100006.06
2023-01-19T08:56:48.372Z,100003.66
2023-01-19T08:59:14.931Z,100006.53
2023-01-19T09:01:41.743Z,100003.97
2023-01-19T09:04:08.517Z,100008.84
2023-01-19T09:06:35.098Z,100011.00
2023-01-19T09:09:03.457Z,100013.31
2023-01-19T09:11:30.894Z,100012.00
2023-01-19T09:13:57.410Z,100011.63
2023-01-19T09:16:24.918Z,100016.22
2023-01-19T09:18:51.514Z,100019.03
2023-01-19T09:21:18.608Z,100022.28
2023-01-19T09:23:46.225Z,100020.97
2023-01-19T09:26:14.948Z,100024.81
2023-01-19T09:28:41.454Z,100020.81
2023-01-19T09:31:08.860Z,100026.28
2023-01-19T09:33:36.993Z,100022.13
2023-01-19T09:36:03.982Z,100024.66
2023-01-19T09:38:32.861Z,100036.38
2023-01-19T09:41:00.035Z,100028.38
2023-01-19T09:43:26.661Z,100031.25
2023-01-19T09:46:06.323Z,100037.06
2023-01-19T09:48:56.554Z,100038.38
2023-01-19T09:51:28.203Z,100036.13
2023-01-19T09:54:00.812Z,100040.91
2023-01-19T09:56:28.337Z,100048.59
2023-01-19T09:58:54.909Z,100045.28
2023-01-19T10:01:53.444Z,100051.50
2023-01-19T10:04:42.413Z,100052.94
2023-01-19T10:07:13.526Z,100057.50
2023-01-19T10:10:03.321Z,100058.00
2023-01-19T10:13:09.025Z,100052.22
2023-01-19T10:15:38.514Z,100054.63
2023-01-19T10:18:19.610Z,100053.84
2023-01-19T10:21:15.432Z,100053.19
2023-01-19T10:23:55.315Z,100054.91
2023-01-19T10:26:37.351Z,100071.19
2023-01-19T10:29:11.776Z,100060.97
2023-01-19T10:31:39.009Z,100050.56
2023-01-19T10:34:05.805Z,100050.22
2023-01-19T10:36:37.812Z,100045.59
2023-01-19T10:39:05.832Z,100050.66
2023-01-19T10:41:40.860Z,100049.00
2023-01-19T10:44:09.517Z,100044.50
2023-01-19T10:46:47.740Z,100044.78
2023-01-19T10:49:36.781Z,100040.56
2023-01-19T10:52:05.783Z,100049.06
2023-01-19T10:54:34.648Z,100052.56
2023-01-19T10:57:03.723Z,100049.78
2023-01-19T10:59:38.452Z,100052.31
2023-01-19T11:02:22.243Z,100053.16
2023-01-19T11:04:51.353Z,100043.41
2023-01-19T11:07:27.991Z,100048.94
2023-01-19T11:10:16.069Z,100038.72
2023-01-19T11:12:44.386Z,100041.00
2023-01-19T11:15:23.383Z,100052.91
2023-01-19T11:17:50.380Z,100038.94
2023-01-19T11:20:29.835Z,100040.97
2023-01-19T11:23:07.161Z,100029.41
2023-01-19T11:25:35.051Z,100032.00
2023-01-19T11:28:02.000Z,100035.22
2023-01-19T11:30:35.545Z,100035.22
2023-01-19T11:33:04.566Z,100043.53
2023-01-19T11:35:39.576Z,100033.69
2023-01-19T11:38:15.741Z,100028.88
2023-01-19T11:40:55.444Z,100024.94
2023-01-19T11:43:23.791Z,100033.97
2023-01-19T11:45:50.810Z,100029.59
2023-01-19T11:48:24.736Z,100029.44
2023-01-19T11:50:51.713Z,100030.84
2023-01-19T11:53:24.359Z,100048.56
2023-01-19T11:55:50.949Z,100048.06
2023-01-19T11:58:18.692Z,100053.53
2023-01-19T12:01:05.437Z,100056.06
2023-01-19T12:03:33.876Z,100062.91
2023-01-19T12:06:22.238Z,100066.41
2023-01-19T12:08:53.737Z,100056.50
2023-01-19T12:11:25.269Z,100056.50
2023-01-19T12:13:53.811Z,100052.72
2023-01-19T12:16:22.097Z,100041.03
2023-01-19T12:18:55.954Z,100049.88
2023-01-19T12:21:22.763Z,100060.75
2023-01-19T12:24:16.361Z,100061.16
2023-01-19T12:26:54.387Z,100064.47
2023-01-19T12:29:22.578Z,100066.69
2023-01-19T12:32:13.934Z,100055.81
2023-01-19T12:34:46.533Z,100062.59
2023-01-19T12:37:35.101Z,100076.13
2023-01-19T12:40:25.106Z,100074.69
2023-01-19T12:42:58.688Z,100062.97
2023-01-19T12:45:32.098Z,100070.41
2023-01-19T12:47:58.890Z,100062.84
2023-01-19T12:50:26.146Z,100076.81
2023-01-19T12:52:57.533Z,100081.84
2023-01-19T12:55:31.106Z,100083.31
2023-01-19T12:58:06.908Z,100078.47
2023-01-19T13:00:41.737Z,100080.19
2023-01-19T13:03:45.893Z,100083.22
2023-01-19T13:06:12.664Z,100102.56
2023-01-19T13:08:55.522Z,100092.69
2023-01-19T13:11:25.696Z,100098.47
2023-01-19T13:13:59.090Z,100110.91
2023-01-19T13:16:28.743Z,100085.69
2023-01-19T13:18:55.383Z,100088.13
2023-01-19T13:21:42.409Z,100074.88
2023-01-19T13:24:16.592Z,100093.56
2023-01-19T13:26:43.113Z,100082.38
2023-01-19T13:29:26.744Z,100099.31
2023-01-19T13:31:54.888Z,100096.91
2023-01-19T13:34:24.678Z,100096.41
2023-01-19T13:36:53.081Z,100115.84
2023-01-19T13:39:32.320Z,100118.53
2023-01-19T13:42:02.238Z,100099.28
2023-01-19T13:44:39.200Z,100104.88
2023-01-19T13:47:08.612Z,100110.22
2023-01-19T13:49:45.672Z,100110.78
2023-01-19T13:52:13.937Z,100129.34
2023-01-19T13:55:02.792Z,100121.09
2023-01-19T13:57:40.664Z,100120.50
2023-01-19T14:00:14.161Z,100122.44
2023-01-19T14:03:15.775Z,100120.50
2023-01-19T14:05:43.638Z,100152.66
2023-01-19T14:08:13.322Z,100122.91
2023-01-19T14:10:42.664Z,100133.59
2023-01-19T14:13:13.699Z,100140.28
2023-01-19T14:15:40.843Z,100135.19
2023-01-19T14:18:09.536Z,100142.34
2023-01-19T14:20:39.286Z,100139.56
2023-01-19T14:23:07.184Z,100139.56
2023-01-19T14:25:34.687Z,100129.34
2023-01-19T14:28:30.100Z,100147.94
2023-01-19T14:30:59.330Z,100150.59
2023-01-19T14:33:55.827Z,100150.13
2023-01-19T14:36:36.329Z,100152.53
2023-01-19T14:39:03.815Z,100150.59
2023-01-19T14:41:48.006Z,100153.88
2023-01-19T14:44:19.999Z,100157.13
2023-01-19T14:46:47.280Z,100166.00
2023-01-19T14:49:19.502Z,100168.31
2023-01-19T14:51:47.371Z,100161.50
2023-01-19T14:54:29.681Z,100172.78
2023-01-19T14:56:56.207Z,100163.69
2023-01-19T14:59:22.736Z,100181.75
2023-01-19T16:10:18.406Z,100209.63
2023-01-19T16:12:46.579Z,100194.47
2023-01-19T16:15:13.864Z,100205.53
2023-01-19T16:17:41.031Z,100196.56
2023-01-19T16:20:09.331Z,100194.41
2023-01-19T16:22:36.985Z,100203.16
2023-01-19T16:25:04.358Z,100213.69
2023-01-19T16:27:30.830Z,100210.16
2023-01-19T16:29:59.874Z,100216.34
2023-01-19T16:32:26.448Z,100220.84
2023-01-19T16:34:53.070Z,100219.38
2023-01-19T16:37:19.589Z,100226.88
2023-01-19T16:39:46.137Z,100230.72
2023-01-19T16:42:12.723Z,100232.66
2023-01-19T16:44:39.268Z,100236.28
2023-01-19T16:47:05.844Z,100243.53
2023-01-19T16:49:32.591Z,100244.13
2023-01-19T16:51:59.459Z,100251.16
2023-01-19T16:54:27.075Z,100255.41
2023-01-19T16:56:55.021Z,100264.13
2023-01-19T16:59:22.447Z,100265.94
2023-01-19T17:01:52.508Z,100276.63
2023-01-19T17:04:20.426Z,100283.63
2023-01-19T17:06:47.272Z,100282.78
2023-01-19T17:09:14.051Z,100288.97
2023-01-19T17:11:40.940Z,100295.28
2023-01-19T17:14:10.571Z,100296.13
2023-01-19T17:16:37.208Z,100288.13
2023-01-19T17:19:05.978Z,100290.69
2023-01-19T17:21:32.778Z,100293.59
2023-01-19T17:24:00.123Z,100293.78
2023-01-19T17:26:28.448Z,100295.63
2023-01-19T17:29:02.876Z,100302.03
2023-01-19T17:31:30.432Z,100300.66
2023-01-19T17:33:57.350Z,100295.31
2023-01-19T17:36:25.407Z,100298.00
2023-01-19T17:38:53.929Z,100306.91
2023-01-19T17:41:24.785Z,100304.47
2023-01-19T17:43:52.147Z,100308.31
2023-01-19T17:46:20.457Z,100300.56
2023-01-19T17:48:56.503Z,100303.66
2023-01-19T17:51:23.809Z,100301.31
2023-01-19T17:53:51.389Z,100302.28
2023-01-19T17:56:21.985Z,100295.03
2023-01-19T17:58:49.033Z,100292.03
2023-01-19T18:01:20.369Z,100294.50
2023-01-19T18:03:47.189Z,100292.69
2023-01-19T18:06:14.367Z,100296.91
2023-01-19T18:08:42.708Z,100295.00
2023-01-19T18:11:10.287Z,100299.16
2023-01-19T18:13:37.510Z,100306.16
2023-01-19T18:16:09.371Z,100314.16
2023-01-19T18:18:36.523Z,100312.91
2023-01-19T18:21:08.377Z,100319.31
2023-01-19T18:23:35.476Z,100317.75
2023-01-19T18:26:07.426Z,100328.69
2023-01-19T18:28:34.239Z,100327.34
2023-01-19T18:31:01.226Z,100334.94
2023-01-19T18:33:28.430Z,100334.50
2023-01-19T18:35:55.108Z,100338.31
2023-01-19T18:38:21.703Z,100337.72
2023-01-19T18:40:48.333Z,100337.06
2023-01-19T18:43:15.106Z,100341.13
2023-01-19T18:45:42.196Z,100339.75
2023-01-19T18:48:09.522Z,100340.81
2023-01-19T18:50:37.611Z,100322.28
2023-01-19T18:53:04.190Z,100326.13
2023-01-19T18:55:30.804Z,100309.81
2023-01-19T18:57:57.409Z,100307.91
2023-01-19T19:00:24.713Z,100315.03
2023-01-19T19:02:51.664Z,100311.50
2023-01-19T19:05:18.185Z,100311.06
2023-01-19T19:07:44.746Z,100303.94
2023-01-19T19:10:11.981Z,100302.97
2023-01-19T19:12:38.681Z,100298.28
2023-01-19T19:15:05.646Z,100286.47
2023-01-19T19:17:32.336Z,100272.97
2023-01-19T19:19:58.854Z,100267.44
2023-01-19T19:22:25.734Z,100280.66
2023-01-19T19:24:52.519Z,100282.56
2023-01-19T19:27:19.074Z,100282.78
2023-01-19T19:29:48.202Z,100288.28
2023-01-19T19:32:16.607Z,100293.63
2023-01-19T19:34:43.162Z,100291.69
2023-01-19T19:37:09.830Z,100299.69
2023-01-19T19:39:41.103Z,100301.41
2023-01-19T19:42:07.797Z,100299.59
2023-01-19T19:44:34.379Z,100301.50
2023-01-19T19:47:01.079Z,100312.56
2023-01-19T19:49:27.711Z,100310.13
2023-01-19T19:51:54.371Z,100311.28
2023-01-19T19:54:20.935Z,100308.91
2023-01-19T19:56:51.262Z,100310.19
2023-01-19T19:59:18.399Z,100311.13
2023-01-19T20:01:47.166Z,100311.44
2023-01-19T20:04:14.367Z,100309.09
2023-01-19T20:06:44.544Z,100306.94
2023-01-19T20:09:15.695Z,100303.94
2023-01-19T20:11:46.698Z,100298.19
2023-01-19T20:14:14.621Z,100286.03
2023-01-19T20:16:41.412Z,100287.28
2023-01-19T20:19:08.247Z,100288.56
2023-01-19T20:21:37.319Z,100287.25
2023-01-19T20:24:07.669Z,100290.88
2023-01-19T20:26:36.861Z,100289.28
2023-01-19T20:29:06.797Z,100292.97
2023-01-19T20:31:36.124Z,100307.97
2023-01-19T20:34:06.009Z,100313.38
2023-01-19T20:36:33.039Z,100316.88
2023-01-19T20:38:59.671Z,100325.72
2023-01-19T20:41:27.216Z,100324.75
2023-01-19T20:43:53.872Z,100333.69
2023-01-19T20:46:20.519Z,100350.56
2023-01-19T20:48:50.865Z,100350.66
2023-01-19T20:51:18.940Z,100363.94
2023-01-19T20:53:45.847Z,100370.50
2023-01-19T20:56:13.957Z,100384.94
2023-01-19T20:58:40.896Z,100386.16
2023-01-19T21:01:19.990Z,100385.31
2023-01-19T21:03:46.669Z,100380.19
2023-01-19T21:06:14.275Z,100387.59
2023-01-19T21:08:41.235Z,100385.31
2023-01-19T21:11:08.319Z,100390.06
2023-01-19T21:13:35.255Z,100400.03
2023-01-19T21:16:02.423Z,100397.66
2023-01-19T21:18:29.209Z,100393.53
2023-01-19T21:20:57.554Z,100396.09
2023-01-19T21:23:29.830Z,100397.53
2023-01-19T21:25:59.184Z,100388.66
2023-01-19T21:28:27.243Z,100387.47
2023-01-19T21:30:55.084Z,100387.53
2023-01-19T21:33:22.102Z,100384.97
2023-01-19T21:35:56.653Z,100379.63
2023-01-19T21:38:26.789Z,100380.19
2023-01-19T21:40:54.263Z,100385.56
2023-01-19T21:43:21.130Z,100389.81
2023-01-19T21:45:48.422Z,100390.44
2023-01-19T21:48:15.961Z,100391.84
2023-01-19T21:50:42.927Z,100395.25
2023-01-19T21:53:11.319Z,100395.25
2023-01-19T21:55:38.763Z,100394.34
2023-01-19T21:58:05.436Z,100393.56
2023-01-19T22:00:32.001Z,100391.75
2023-01-19T22:03:04.109Z,100400.41
2023-01-19T22:05:36.529Z,100403.63
2023-01-19T22:08:04.496Z,100409.78
2023-01-19T22:10:31.135Z,100409.00
2023-01-19T22:12:57.782Z,100408.09
2023-01-19T22:15:24.312Z,100409.97
2023-01-19T22:17:50.828Z,100416.22
2023-01-19T22:20:17.607Z,100408.38
2023-01-19T22:22:44.117Z,100405.72
2023-01-19T22:25:10.765Z,100406.47
2023-01-19T22:27:38.765Z,100402.84
2023-01-19T22:30:05.973Z,100403.63
2023-01-19T22:32:32.572Z,100401.94
2023-01-19T22:34:59.150Z,100396.72
2023-01-19T22:37:25.632Z,100398.50
2023-01-19T22:39:53.190Z,100395.94
2023-01-19T22:42:19.832Z,100395.25
2023-01-19T22:44:47.035Z,100393.09
2023-01-19T22:47:13.652Z,100392.41
2023-01-19T22:49:40.687Z,100389.81
2023-01-19T22:52:07.252Z,100379.06
2023-01-19T22:54:33.915Z,100381.88
2023-01-19T22:57:00.509Z,100389.16
2023-01-19T22:59:27.148Z,100379.41
2023-01-19T23:01:53.906Z,100374.00
2023-01-19T23:04:20.545Z,100381.03
2023-01-19T23:06:50.425Z,100379.22
2023-01-19T23:09:18.003Z,100381.88
2023-01-19T23:11:50.157Z,100373.84
2023-01-19T23:14:19.042Z,100372.31
2023-01-19T23:16:47.064Z,100378.81
2023-01-19T23:19:14.559Z,100368.75
2023-01-19T23:21:41.243Z,100362.97
2023-01-19T23:24:08.029Z,100364.16
2023-01-19T23:26:40.455Z,100371.53
2023-01-19T23:29:11.852Z,100369.25
2023-01-19T23:31:39.641Z,100368.72
2023-01-19T23:34:08.133Z,100361.81
2023-01-19T23:36:37.063Z,100365.69
2023-01-19T23:39:12.243Z,100377.63
2023-01-19T23:41:38.823Z,100376.78
2023-01-19T23:44:05.651Z,100383.47
2023-01-19T23:46:32.349Z,100372.47
2023-01-19T23:48:58.944Z,100372.13
2023-01-19T23:51:28.320Z,100377.84
2023-01-19T23:53:55.052Z,100373.72
2023-01-19T23:56:27.526Z,100378.69
2023-01-19T23:59:15.385Z,100382.59
